createdAt,value
2023-01-23T00:01:51.019Z,1.47
2023-01-23T00:04:18.621Z,1.33
2023-01-23T00:06:46.715Z,1.40
2023-01-23T00:09:15.562Z,1.40
2023-01-23T00:11:43.076Z,1.55
2023-01-23T00:14:10.761Z,1.30
2023-01-23T00:16:38.306Z,1.70
2023-01-23T00:19:06.048Z,1.48
2023-01-23T00:21:33.812Z,1.50
2023-01-23T00:24:02.413Z,1.48
2023-01-23T00:26:33.709Z,1.40
2023-01-23T00:29:01.400Z,1.40
2023-01-23T00:31:30.351Z,1.40
2023-01-23T00:33:58.711Z,1.80
2023-01-23T00:36:28.663Z,1.30
2023-01-23T00:38:56.575Z,2.08
2023-01-23T00:41:24.386Z,2.00
2023-01-23T00:43:53.636Z,2.00
2023-01-23T00:46:21.817Z,1.90
2023-01-23T00:48:49.435Z,1.98
2023-01-23T00:51:17.175Z,2.33
2023-01-23T00:53:44.991Z,2.20
2023-01-23T00:56:12.896Z,1.90
2023-01-23T00:58:43.419Z,2.40
2023-01-23T01:01:14.662Z,2.73
2023-01-23T01:03:42.683Z,2.90
2023-01-23T01:06:10.448Z,2.90
2023-01-23T01:08:38.089Z,2.87
2023-01-23T01:11:06.014Z,2.70
2023-01-23T01:13:33.524Z,3.23
2023-01-23T01:16:02.252Z,3.43
2023-01-23T01:18:31.351Z,3.30
2023-01-23T01:21:00.247Z,3.37
2023-01-23T01:23:27.907Z,3.95
2023-01-23T01:25:59.474Z,3.73
2023-01-23T01:28:28.154Z,3.60
2023-01-23T01:30:55.725Z,3.92
2023-01-23T01:33:24.199Z,3.97
2023-01-23T01:35:56.472Z,4.22
2023-01-23T01:38:24.234Z,4.40
2023-01-23T01:40:51.884Z,4.00
2023-01-23T01:43:20.512Z,4.40
2023-01-23T01:46:06.643Z,4.38
2023-01-23T01:48:36.378Z,4.32
2023-01-23T01:51:09.793Z,4.40
2023-01-23T01:53:38.490Z,4.30
2023-01-23T01:56:06.631Z,4.60
2023-01-23T01:58:34.432Z,4.60
2023-01-23T02:01:02.109Z,4.68
2023-01-23T02:03:29.895Z,4.93
2023-01-23T02:05:57.467Z,4.70
2023-01-23T02:08:30.877Z,4.47
2023-01-23T02:11:01.951Z,4.75
2023-01-23T02:13:33.682Z,5.25
2023-01-23T02:16:02.308Z,4.82
2023-01-23T02:18:30.607Z,5.18
2023-01-23T02:20:59.403Z,5.38
2023-01-23T02:23:35.810Z,5.82
2023-01-23T02:26:06.466Z,6.00
2023-01-23T02:28:38.248Z,5.57
2023-01-23T02:31:06.527Z,5.82
2023-01-23T02:33:49.202Z,5.13
2023-01-23T02:36:18.361Z,5.03
2023-01-23T02:38:52.841Z,5.53
2023-01-23T02:41:25.058Z,5.27
2023-01-23T02:43:53.390Z,5.80
2023-01-23T02:46:21.535Z,5.50
2023-01-23T02:48:49.588Z,6.20
2023-01-23T02:51:18.028Z,5.65
2023-01-23T02:53:46.453Z,5.37
2023-01-23T02:56:14.101Z,6.15
2023-01-23T02:59:00.702Z,5.47
2023-01-23T03:01:28.498Z,5.70
2023-01-23T03:04:03.532Z,6.03
2023-01-23T03:06:36.121Z,6.22
2023-01-23T03:09:05.500Z,5.80
2023-01-23T03:11:33.782Z,6.60
2023-01-23T03:14:04.217Z,6.65
2023-01-23T03:16:32.547Z,6.28
2023-01-23T03:19:04.953Z,5.87
2023-01-23T03:21:33.732Z,6.03
2023-01-23T03:24:01.319Z,6.28
2023-01-23T03:26:29.539Z,6.03
2023-01-23T03:29:15.015Z,5.90
2023-01-23T03:31:44.097Z,5.88
2023-01-23T03:34:14.706Z,6.18
2023-01-23T03:36:42.488Z,6.63
2023-01-23T03:39:28.259Z,7.03
2023-01-23T03:41:56.385Z,6.30
2023-01-23T03:44:26.684Z,6.28
2023-01-23T03:46:55.773Z,6.65
2023-01-23T03:49:24.196Z,6.03
2023-01-23T03:51:58.016Z,5.80
2023-01-23T03:54:25.805Z,5.83
2023-01-23T03:56:54.523Z,6.53
2023-01-23T04:00:00.691Z,6.40
2023-01-23T04:02:42.586Z,5.90
2023-01-23T04:05:13.429Z,5.55
2023-01-23T04:07:41.346Z,6.57
2023-01-23T04:10:12.718Z,5.60
2023-01-23T04:12:43.010Z,6.60
2023-01-23T04:15:11.469Z,6.30
2023-01-23T04:17:42.171Z,6.27
2023-01-23T04:20:12.719Z,6.43
2023-01-23T04:22:42.449Z,5.80
2023-01-23T04:25:11.272Z,6.20
2023-01-23T04:27:38.835Z,6.07
2023-01-23T04:30:08.381Z,6.35
2023-01-23T04:32:36.179Z,6.00
2023-01-23T04:35:04.079Z,6.90
2023-01-23T04:37:33.758Z,6.65
2023-01-23T04:40:02.798Z,5.97
2023-01-23T04:42:40.985Z,6.27
2023-01-23T04:45:12.396Z,5.63
2023-01-23T04:47:58.735Z,6.30
2023-01-23T04:50:26.314Z,6.70
2023-01-23T04:52:55.236Z,6.10
2023-01-23T04:55:23.525Z,6.20
2023-01-23T04:57:51.603Z,6.23
2023-01-23T05:00:25.839Z,6.60
2023-01-23T05:02:54.166Z,5.90
2023-01-23T05:05:22.083Z,6.90
2023-01-23T05:07:52.451Z,5.97
2023-01-23T05:10:21.722Z,6.37
2023-01-23T05:12:50.154Z,5.80
2023-01-23T05:15:18.346Z,6.70
2023-01-23T05:17:47.194Z,6.38
2023-01-23T05:20:15.012Z,7.43
2023-01-23T05:22:52.057Z,6.53
2023-01-23T05:25:24.220Z,6.80
2023-01-23T05:27:52.143Z,5.97
2023-01-23T05:30:21.594Z,6.80
2023-01-23T05:32:51.910Z,6.55
2023-01-23T05:35:21.935Z,6.60
2023-01-23T05:37:50.561Z,6.30
2023-01-23T05:40:23.866Z,6.67
2023-01-23T05:43:06.973Z,7.03
2023-01-23T05:45:54.565Z,6.43
2023-01-23T05:48:29.098Z,5.60
2023-01-23T05:50:56.752Z,6.53
2023-01-23T05:53:24.697Z,7.00
2023-01-23T05:55:54.235Z,7.00
2023-01-23T05:58:22.586Z,7.32
2023-01-23T06:01:03.636Z,9.33
2023-01-23T06:03:49.750Z,10.60
2023-01-23T06:06:41.365Z,8.18
2023-01-23T06:09:10.175Z,7.97
2023-01-23T06:11:39.625Z,7.07
2023-01-23T06:14:08.542Z,7.63
2023-01-23T06:16:36.473Z,7.93
2023-01-23T06:19:08.222Z,7.75
2023-01-23T06:21:37.749Z,7.60
2023-01-23T06:24:05.762Z,8.13
2023-01-23T06:26:33.403Z,7.47
2023-01-23T06:29:02.338Z,7.80
2023-01-23T06:31:32.401Z,7.40
2023-01-23T06:34:01.584Z,7.70
2023-01-23T06:36:34.034Z,8.10
2023-01-23T06:39:01.702Z,7.43
2023-01-23T06:41:36.647Z,7.40
2023-01-23T06:44:08.693Z,7.10
2023-01-23T06:46:36.695Z,7.47
2023-01-23T06:49:06.301Z,8.80
2023-01-23T06:51:37.431Z,7.10
2023-01-23T06:54:07.036Z,7.35
2023-01-23T06:56:34.808Z,7.90
2023-01-23T06:59:05.936Z,8.02
2023-01-23T07:01:35.984Z,7.28
2023-01-23T07:04:17.739Z,7.33
2023-01-23T07:06:47.358Z,7.93
2023-01-23T07:09:17.455Z,7.07
2023-01-23T07:11:51.638Z,6.67
2023-01-23T07:14:19.187Z,8.30
2023-01-23T07:16:50.351Z,7.80
2023-01-23T07:19:17.862Z,8.25
2023-01-23T07:21:45.421Z,8.03
2023-01-23T07:24:12.917Z,8.52
2023-01-23T07:26:40.619Z,7.63
2023-01-23T07:29:08.731Z,8.20
2023-01-23T07:31:36.325Z,7.93
2023-01-23T07:34:05.321Z,8.00
2023-01-23T07:36:32.819Z,8.48
2023-01-23T07:39:00.526Z,7.95
2023-01-23T07:41:28.089Z,8.82
2023-01-23T07:43:55.643Z,8.45
2023-01-23T07:46:25.632Z,8.10
2023-01-23T07:48:53.492Z,8.88
2023-01-23T07:51:22.438Z,8.38
2023-01-23T07:53:49.947Z,8.60
2023-01-23T07:56:17.700Z,8.73
2023-01-23T07:58:45.385Z,7.83
2023-01-23T08:01:13.088Z,9.10
2023-01-23T08:03:40.734Z,8.43
2023-01-23T08:06:08.699Z,8.65
2023-01-23T08:08:37.705Z,8.57
2023-01-23T08:11:06.163Z,9.52
2023-01-23T08:13:33.742Z,9.57
2023-01-23T08:16:01.346Z,8.35
2023-01-23T08:18:30.003Z,8.90
2023-01-23T08:20:58.191Z,8.48
2023-01-23T08:23:26.287Z,8.02
2023-01-23T08:25:55.848Z,8.52
2023-01-23T08:28:23.880Z,8.93
2023-01-23T08:30:51.993Z,7.72
2023-01-23T08:33:19.867Z,8.30
2023-01-23T08:35:51.155Z,8.82
2023-01-23T08:38:19.381Z,8.82
2023-01-23T08:40:47.404Z,8.57
2023-01-23T08:43:16.517Z,8.05
2023-01-23T08:45:48.942Z,8.43
2023-01-23T08:48:16.592Z,7.80
2023-01-23T08:50:44.654Z,8.27
2023-01-23T08:53:12.350Z,8.45
2023-01-23T08:55:39.987Z,8.35
2023-01-23T08:58:07.928Z,7.72
2023-01-23T09:00:37.410Z,8.27
2023-01-23T09:03:05.484Z,7.95
2023-01-23T09:05:33.205Z,7.63
2023-01-23T09:08:00.828Z,8.40
2023-01-23T09:10:28.595Z,8.27
2023-01-23T09:12:56.436Z,7.93
2023-01-23T09:15:23.994Z,8.73
2023-01-23T09:17:52.927Z,8.75
2023-01-23T09:20:21.123Z,8.93
2023-01-23T09:22:48.916Z,8.53
2023-01-23T09:25:16.436Z,8.53
2023-01-23T09:27:43.938Z,8.80
2023-01-23T09:30:12.026Z,8.38
2023-01-23T09:32:39.521Z,8.82
2023-01-23T09:35:09.223Z,8.37
2023-01-23T09:37:50.881Z,8.53
2023-01-23T09:40:19.676Z,9.10
2023-01-23T09:42:47.631Z,8.68
2023-01-23T09:45:17.427Z,8.93
2023-01-23T09:47:46.498Z,7.95
2023-01-23T09:50:19.323Z,8.60
2023-01-23T09:52:49.529Z,8.43
2023-01-23T09:55:19.353Z,8.85
2023-01-23T09:57:49.218Z,8.85
2023-01-23T10:00:21.308Z,8.57
2023-01-23T10:02:49.182Z,7.97
2023-01-23T10:05:43.813Z,7.97
2023-01-23T10:08:21.792Z,8.35
2023-01-23T10:10:54.311Z,7.95
2023-01-23T10:13:30.268Z,8.60
2023-01-23T10:16:06.840Z,8.63
2023-01-23T10:18:36.569Z,9.90
2023-01-23T10:21:11.457Z,9.13
2023-01-23T10:26:23.000Z,9.35
2023-01-23T10:28:52.846Z,8.90
2023-01-23T10:31:26.080Z,8.45
2023-01-23T10:33:57.184Z,9.25
2023-01-23T10:36:27.419Z,8.40
2023-01-23T10:38:57.855Z,8.77
2023-01-23T10:41:26.965Z,8.60
2023-01-23T10:43:55.292Z,9.88
2023-01-23T10:46:24.561Z,9.38
2023-01-23T10:48:53.170Z,9.35
2023-01-23T10:51:34.520Z,9.18
2023-01-23T10:54:07.807Z,8.50
2023-01-23T10:56:38.396Z,8.63
2023-01-23T10:59:06.788Z,8.15
2023-01-23T11:01:35.133Z,8.63
2023-01-23T11:04:12.780Z,8.90
2023-01-23T11:06:40.283Z,8.10
2023-01-23T11:09:18.988Z,9.90
2023-01-23T11:11:59.877Z,9.23
2023-01-23T11:14:27.479Z,8.18
2023-01-23T11:17:10.067Z,8.85
2023-01-23T11:19:40.982Z,7.85
2023-01-23T11:22:25.460Z,8.55
2023-01-23T11:24:53.179Z,8.38
2023-01-23T11:27:26.292Z,8.70
2023-01-23T11:30:02.029Z,8.75
2023-01-23T11:32:31.111Z,8.38
2023-01-23T11:35:13.025Z,9.23
2023-01-23T11:37:41.867Z,8.35
2023-01-23T11:40:12.564Z,8.32
2023-01-23T11:42:42.351Z,9.27
2023-01-23T11:45:14.364Z,9.50
2023-01-23T11:47:59.857Z,9.48
2023-01-23T11:50:54.830Z,9.77
2023-01-23T11:53:41.501Z,9.45
2023-01-23T11:56:25.235Z,8.55
2023-01-23T12:00:00.730Z,8.80
2023-01-23T12:02:47.550Z,9.35
2023-01-23T12:05:24.451Z,8.85
2023-01-23T12:07:58.157Z,8.48
2023-01-23T12:10:28.205Z,8.43
2023-01-23T12:13:06.343Z,11.70
2023-01-23T12:15:36.981Z,9.02
2023-01-23T12:18:07.985Z,9.93
2023-01-23T12:20:40.009Z,8.55
2023-01-23T12:23:30.908Z,8.43
2023-01-23T12:26:01.766Z,9.45
2023-01-23T12:28:36.644Z,10.00
2023-01-23T12:31:22.206Z,9.73
2023-01-23T12:34:08.786Z,11.07
2023-01-23T12:37:08.646Z,10.73
2023-01-23T12:39:55.927Z,10.20
2023-01-23T12:42:25.401Z,11.07
2023-01-23T12:44:57.570Z,9.95
2023-01-23T12:47:28.398Z,9.45
2023-01-23T12:49:58.463Z,10.38
2023-01-23T12:52:28.284Z,9.35
2023-01-23T12:55:00.194Z,9.55
2023-01-23T12:57:59.044Z,9.07
2023-01-23T13:00:40.886Z,9.65
2023-01-23T13:03:15.350Z,10.25
2023-01-23T13:05:44.915Z,10.65
2023-01-23T13:08:19.148Z,9.90
2023-01-23T13:11:14.823Z,9.40
2023-01-23T13:13:42.941Z,9.30
2023-01-23T13:16:12.299Z,8.95
2023-01-23T13:18:59.262Z,10.02
2023-01-23T13:21:44.536Z,9.77
2023-01-23T13:24:47.693Z,10.05
2023-01-23T13:27:35.468Z,10.45
2023-01-23T13:30:03.534Z,12.25
2023-01-23T13:32:31.163Z,10.98
2023-01-23T13:35:02.016Z,8.98
2023-01-23T13:37:54.487Z,9.70
2023-01-23T13:40:23.268Z,10.52
2023-01-23T13:42:51.196Z,9.27
2023-01-23T13:45:24.419Z,9.15
2023-01-23T14:22:01.160Z,10.73
2023-01-23T14:24:33.242Z,10.07
2023-01-23T14:27:07.378Z,9.35
2023-01-23T14:29:35.869Z,11.15
2023-01-23T14:32:03.617Z,9.93
2023-01-23T14:34:31.168Z,10.52
2023-01-23T14:37:02.276Z,10.55
2023-01-23T14:39:32.357Z,10.13
2023-01-23T14:42:02.658Z,11.43
2023-01-23T14:44:34.030Z,10.90
2023-01-23T14:47:03.673Z,10.88
2023-01-23T14:49:33.642Z,10.80
2023-01-23T14:52:03.556Z,10.80
2023-01-23T14:54:33.768Z,11.05
2023-01-23T14:57:04.279Z,10.77
2023-01-23T14:59:33.570Z,11.60
2023-01-23T15:02:05.361Z,10.82
2023-01-23T15:04:37.902Z,11.50
2023-01-23T15:07:05.518Z,11.80
2023-01-23T15:09:36.951Z,11.05
2023-01-23T15:12:05.243Z,11.60
2023-01-23T15:14:36.703Z,11.05
2023-01-23T15:17:05.711Z,10.80
2023-01-23T15:19:36.440Z,11.50
2023-01-23T15:22:19.067Z,11.93
2023-01-23T15:24:48.475Z,13.07
2023-01-23T15:27:27.336Z,12.30
2023-01-23T15:30:09.995Z,12.45
2023-01-23T15:32:39.614Z,12.80
2023-01-23T15:35:16.009Z,11.18
2023-01-23T15:37:47.431Z,11.88
2023-01-23T15:40:17.826Z,12.98
2023-01-23T15:43:01.231Z,12.15
2023-01-23T15:45:28.837Z,11.25
2023-01-23T15:47:56.410Z,13.98
2023-01-23T15:50:23.983Z,13.05
2023-01-23T15:52:52.292Z,12.27
2023-01-23T15:55:21.902Z,14.35
2023-01-23T15:57:50.056Z,14.15
2023-01-23T16:00:18.772Z,14.20
2023-01-23T16:02:55.691Z,14.05
2023-01-23T16:05:25.811Z,12.52
2023-01-23T16:07:53.711Z,12.45
2023-01-23T16:10:23.677Z,14.85
2023-01-23T16:12:52.286Z,12.23
2023-01-23T16:15:20.999Z,18.30
2023-01-23T16:17:48.656Z,17.15
2023-01-23T16:20:16.492Z,14.40
2023-01-23T16:22:44.174Z,13.35
2023-01-23T16:25:18.591Z,13.88
2023-01-23T16:27:47.493Z,13.10
2023-01-23T16:30:17.007Z,14.60
2023-01-23T16:32:44.796Z,14.43
2023-01-23T16:35:12.818Z,14.45
2023-01-23T16:37:40.921Z,14.65
2023-01-23T16:40:15.679Z,13.77
2023-01-23T16:42:44.053Z,13.68
2023-01-23T16:45:16.289Z,13.43
2023-01-23T16:47:43.986Z,13.88
2023-01-23T16:50:12.952Z,13.23
2023-01-23T16:52:40.662Z,14.00
2023-01-23T16:55:17.202Z,12.75
2023-01-23T16:57:44.810Z,11.93
2023-01-23T17:00:24.857Z,13.07
2023-01-23T17:02:59.219Z,13.13
2023-01-23T17:05:26.780Z,13.27
2023-01-23T17:07:54.345Z,12.85
2023-01-23T17:10:22.746Z,13.95
2023-01-23T17:12:52.503Z,12.63
2023-01-23T17:15:23.799Z,13.20
2023-01-23T17:17:52.207Z,13.95
2023-01-23T17:20:20.067Z,14.43
2023-01-23T17:22:48.182Z,13.82
2023-01-23T17:25:16.484Z,14.25
2023-01-23T17:27:45.816Z,14.30
2023-01-23T17:30:17.617Z,14.77
2023-01-23T17:32:47.789Z,13.68
2023-01-23T17:35:19.941Z,13.50
2023-01-23T17:37:47.691Z,14.43
2023-01-23T17:40:15.563Z,13.10
2023-01-23T17:42:43.306Z,13.35
2023-01-23T17:45:13.480Z,14.00
2023-01-23T17:47:41.940Z,14.65
2023-01-23T17:50:13.653Z,13.38
2023-01-23T17:52:41.142Z,14.77
2023-01-23T17:55:13.496Z,16.25
2023-01-23T17:57:41.051Z,29.90
2023-01-23T18:00:09.372Z,17.85
2023-01-23T18:02:38.237Z,18.77
2023-01-23T18:05:06.284Z,14.98
2023-01-23T18:07:48.540Z,14.52
2023-01-23T18:10:21.144Z,14.80
2023-01-23T18:12:51.423Z,14.90
2023-01-23T18:15:20.985Z,14.52
2023-01-23T18:17:52.414Z,14.10
2023-01-23T18:20:21.481Z,14.68
2023-01-23T18:22:50.746Z,13.45
2023-01-23T18:25:19.661Z,14.10
2023-01-23T18:27:50.119Z,15.02
2023-01-23T18:30:24.897Z,14.75
2023-01-23T18:33:01.028Z,17.38
2023-01-23T18:35:31.531Z,16.15
2023-01-23T18:38:05.766Z,19.30
2023-01-23T18:40:36.798Z,17.40
2023-01-23T18:43:11.090Z,18.65
2023-01-23T18:45:38.952Z,16.67
2023-01-23T18:48:24.008Z,15.18
2023-01-23T18:50:59.216Z,15.57
2023-01-23T18:53:34.302Z,14.77
2023-01-23T18:56:06.190Z,14.93
2023-01-23T18:58:41.447Z,15.05
2023-01-23T19:01:13.524Z,14.30
2023-01-23T19:03:43.005Z,13.63
2023-01-23T19:06:17.039Z,15.48
2023-01-23T19:08:47.832Z,13.73
2023-01-23T19:11:22.229Z,13.05
2023-01-23T19:13:55.345Z,15.10
2023-01-23T19:16:29.258Z,80.28
2023-01-23T19:19:14.731Z,21.65
2023-01-23T19:21:43.264Z,24.85
2023-01-23T19:24:12.440Z,20.55
2023-01-23T19:26:40.746Z,16.50
2023-01-23T19:29:21.040Z,16.42
2023-01-23T19:32:05.987Z,16.17
2023-01-23T19:34:34.562Z,19.33
2023-01-23T19:37:02.371Z,20.90
2023-01-23T19:39:31.778Z,18.90
2023-01-23T19:41:59.684Z,15.63
2023-01-23T19:44:28.867Z,15.13
2023-01-23T19:46:56.757Z,14.50
2023-01-23T19:49:25.053Z,13.93
2023-01-23T19:51:52.683Z,15.02
2023-01-23T19:54:22.380Z,15.50
2023-01-23T19:56:52.846Z,13.75
2023-01-23T19:59:20.862Z,14.80
2023-01-23T20:01:50.735Z,25.35
2023-01-23T20:04:20.540Z,54.63
2023-01-23T20:06:48.908Z,23.80
2023-01-23T20:09:17.555Z,18.67
2023-01-23T20:11:45.911Z,20.38
2023-01-23T20:14:14.812Z,17.92
2023-01-23T20:16:43.453Z,24.20
2023-01-23T20:19:13.536Z,19.88
2023-01-23T20:21:41.039Z,15.68
2023-01-23T20:24:08.713Z,15.50
2023-01-23T20:26:36.401Z,13.63
2023-01-23T20:29:04.847Z,14.93
2023-01-23T20:31:35.436Z,15.55
2023-01-23T20:34:03.195Z,15.35
2023-01-23T20:36:30.806Z,16.10
2023-01-23T20:38:59.252Z,15.55
2023-01-23T20:41:26.905Z,14.77
2023-01-23T20:43:54.400Z,14.55
2023-01-23T20:46:22.207Z,14.43
2023-01-23T20:48:51.103Z,15.05
2023-01-23T20:51:18.970Z,15.07
2023-01-23T20:53:46.555Z,14.52
2023-01-23T20:56:15.414Z,14.93
2023-01-23T20:58:57.460Z,14.57
2023-01-23T21:01:26.062Z,15.73
2023-01-23T21:03:55.017Z,14.48
2023-01-23T21:06:23.255Z,14.95
2023-01-23T21:08:50.888Z,14.18
2023-01-23T21:11:20.411Z,14.77
2023-01-23T21:13:51.536Z,14.18
2023-01-23T21:16:19.263Z,17.33
2023-01-23T21:18:47.226Z,16.45
2023-01-23T21:21:17.028Z,15.98
2023-01-23T21:23:46.743Z,14.90
2023-01-23T21:26:14.395Z,17.98
2023-01-23T21:28:42.029Z,17.30
2023-01-23T21:31:10.336Z,15.65
2023-01-23T21:33:37.977Z,15.18
2023-01-23T21:36:05.749Z,15.02
2023-01-23T21:38:34.639Z,15.25
2023-01-23T21:41:02.242Z,15.15
2023-01-23T21:43:29.878Z,15.27
2023-01-23T21:45:57.982Z,15.98
2023-01-23T21:48:25.839Z,15.30
2023-01-23T21:50:53.399Z,16.23
2023-01-23T21:53:20.870Z,15.75
2023-01-23T21:55:53.459Z,15.90
2023-01-23T21:58:20.980Z,15.90
2023-01-23T22:01:06.106Z,15.07
2023-01-23T22:03:34.750Z,16.58
2023-01-23T22:06:02.484Z,15.93
2023-01-23T22:08:30.358Z,15.15
2023-01-23T22:10:59.228Z,16.92
2023-01-23T22:13:26.781Z,19.45
2023-01-23T22:15:54.342Z,18.67
2023-01-23T22:18:21.940Z,17.60
2023-01-23T22:20:53.665Z,16.00
2023-01-23T22:23:21.173Z,16.10
2023-01-23T22:25:49.401Z,14.57
2023-01-23T22:28:18.629Z,14.13
2023-01-23T22:30:46.160Z,14.20
2023-01-23T22:33:13.703Z,14.32
2023-01-23T22:35:41.937Z,15.02
2023-01-23T22:38:10.460Z,15.55
2023-01-23T22:40:38.043Z,14.53
2023-01-23T22:43:06.034Z,15.10
2023-01-23T22:45:35.028Z,15.25
2023-01-23T22:48:02.526Z,14.60
2023-01-23T22:50:30.394Z,13.75
2023-01-23T22:52:57.922Z,13.50
2023-01-23T22:55:25.427Z,14.73
2023-01-23T22:57:53.129Z,13.30
2023-01-23T23:00:21.395Z,13.32
2023-01-23T23:02:50.268Z,12.82
2023-01-23T23:05:17.868Z,14.30
2023-01-23T23:07:45.513Z,13.68
2023-01-23T23:10:13.322Z,13.88
2023-01-23T23:12:40.791Z,13.38
2023-01-23T23:15:08.722Z,13.00
2023-01-23T23:17:36.277Z,13.77
2023-01-23T23:20:06.916Z,13.80
2023-01-23T23:22:34.426Z,13.43
2023-01-23T23:25:01.962Z,13.20
2023-01-23T23:27:29.538Z,12.43
2023-01-23T23:29:57.059Z,12.52
2023-01-23T23:32:24.615Z,13.18
2023-01-23T23:34:52.288Z,12.95
2023-01-23T23:37:21.123Z,14.00
2023-01-23T23:39:48.641Z,12.57
2023-01-23T23:42:16.352Z,13.02
2023-01-23T23:44:43.905Z,13.32
2023-01-23T23:47:11.481Z,13.85
2023-01-23T23:49:39.021Z,13.27
2023-01-23T23:52:06.540Z,12.75
2023-01-23T23:54:35.394Z,12.70
2023-01-23T23:57:02.968Z,12.68
2023-01-23T23:59:30.544Z,12.52
